首页
METAR-TAF:

METAR-TAF

机场 :

道森克里克, 不列颠哥伦比亚, 加拿大

纬度: 55-45N, 经度: 120-11W, 海拔: 655米

当前天气观测

该预报发布于28分钟前的13:00 UTC
静风
温度 8°C
湿度 81%
气压 1018 hPa
能見度: 14.5公里
多云层高于12000英尺
多云层高于24000英尺

METAR: CYDQ 221300Z AUTO 00000KT 9SM BKN120 BKN240 08/05 A3007 RMK SLP195

时间: 06:28 (13:28 UTC)

预报

该预报发布于50分钟前的12:38 UTC
预报有效从22日的 13点(UTC)到 23日的 01点(UTC)
风速3节,风向多变
能見度: 10公里
散云层高于12000英尺
多云层高于22000英尺
从 22日的 1800点(UTC)
风速8节,风向
能見度: 10公里
少量云层高于7000英尺
多云层高于12000英尺
短暂存在
从 22日的 20点(UTC)到 23日的 01点(UTC)
能見度: 10公里
多云层高于6000英尺
小阵雨

TAF: CYDQ 221238Z 2213/2301 VRB03KT P6SM SCT120 BKN220 FM221800 35008KT P6SM FEW070 BKN120 TEMPO 2220/2301 P6SM -SHRA BKN060 RMK FCST BASED ON AUTO OBS. NXT FCST BY 221900Z

超过4000个机场的气象观测和天气预报(METAR&TAF报告)。

可查询的气象台以黄色和红色小点在地图上表示。

将鼠标移到小点上方,可查看气象台名称。

然后点击查看天气观测和预报。

如需切换地图:点击带黑十字的绿色按钮放大地图;点击带横线的绿色按钮缩小地图;或者点击绿色箭头查看邻近地区的地图。


METAR-TAF: